Portada
METAR-TAF:

METAR-TAF

Aeropuertos :

Aeropuerto Internacional de Doha

Doha, Qatar

latitud: 25-15-40N, longitud: 051-33-54E, altitud: 11 m

Observación

El informe se hizo hace 30 minutos, a las 07:30 UTC
Viento 14 kt del noroeste
Temperatura 31°C
Humedad 19%
Presión 1013 hPa
Visibilidad 10 km o más
sin nubes por debajo de 1500 m y sin presencia de cumulonimbus.

METAR: OTBD 160730Z 32014KT CAVOK 31/05 Q1013 NOSIG

Hora: 11:00 (08:00 UTC)

Pronóstico

El informe se hizo hace 2 horas y 50 minutos, a las 05:10 UTC
Pronóstico válido del 16 a las 06 UTC al 17 a las 12 UTC
Viento 18 kt del norte-noroeste
Visibilidad 10 km o más
sin nubes por debajo de 1500 m y sin presencia de cumulonimbus.
Evolucionando progresivamente
del 16 a las 16 UTC al 16 a las 18 UTC
Viento 9 kt del oeste
Evolucionando progresivamente
del 17 a las 09 UTC al 17 a las 11 UTC
Viento 7 kt del norte-noreste

TAF: OTBD 160510Z 1606/1712 34018KT CAVOK BECMG 1616/1618 28009KT BECMG 1709/1711 03007KT

Observaciones y pronósticos meteorológicos de más de 4000 aeropuertos (mensajes METAR y TAF).

Los puntos amarillos y rojos representan las estaciones disponibles.

Ponga el ratón en el punto deseado para ver el nombre de la estación.

Haga clic para ver las observaciones y los pronósticos meteorológicos.

Para cambiar el mapa : haga clic en los botones verdes con una cruz de color negro para hacer un zoom, en el botón verde con un guión para alejar o en las flechas verdes para mapas adyacentes.


METAR-TAF: